createdAt,value
2022-08-22T00:00:18.404Z,21.69
2022-08-22T00:02:42.589Z,21.15
2022-08-22T00:02:52.480Z,21.95
2022-08-22T00:03:15.736Z,20.41
2022-08-22T00:03:17.346Z,21.85
2022-08-22T00:06:26.291Z,21.96
2022-08-22T00:09:03.182Z,21.73
2022-08-22T00:11:37.272Z,21.86
2022-08-22T00:14:31.117Z,22.10
2022-08-22T00:17:12.545Z,21.85
2022-08-22T00:19:49.725Z,22.15
2022-08-22T00:22:50.830Z,22.10
2022-08-22T00:25:47.946Z,22.18
2022-08-22T00:28:17.432Z,22.09
2022-08-22T00:30:58.607Z,22.21
2022-08-22T00:33:39.015Z,21.90
2022-08-22T00:36:16.158Z,22.03
2022-08-22T00:38:56.730Z,22.14
2022-08-22T00:41:48.019Z,21.83
2022-08-22T00:44:35.631Z,21.93
2022-08-22T00:47:19.815Z,22.13
2022-08-22T00:50:08.201Z,21.95
2022-08-22T00:52:49.957Z,21.62
2022-08-22T00:58:39.524Z,20.50
2022-08-22T01:01:11.555Z,21.12
2022-08-22T01:04:03.069Z,21.57
2022-08-22T01:06:47.609Z,21.53
2022-08-22T01:09:37.285Z,20.90
2022-08-22T01:12:31.569Z,20.99
2022-08-22T01:15:07.190Z,21.33
2022-08-22T01:18:00.224Z,21.13
2022-08-22T01:21:02.020Z,21.20
2022-08-22T01:23:59.673Z,21.16
2022-08-22T01:26:53.472Z,20.53
2022-08-22T01:29:28.483Z,20.71
2022-08-22T01:32:32.744Z,20.77
2022-08-22T01:35:21.009Z,19.88
2022-08-22T01:38:26.729Z,18.92
2022-08-22T01:41:10.377Z,18.89
2022-08-22T01:44:30.793Z,19.11
2022-08-22T01:47:08.616Z,19.16
2022-08-22T01:49:35.218Z,19.83
2022-08-22T01:52:07.294Z,19.85
2022-08-22T01:54:54.842Z,19.37
2022-08-22T01:57:24.688Z,19.50
2022-08-22T01:59:57.499Z,19.48
2022-08-22T02:02:29.812Z,20.05
2022-08-22T02:05:21.785Z,19.65
2022-08-22T02:07:54.296Z,20.40
2022-08-22T02:10:48.746Z,20.41
2022-08-22T02:13:43.280Z,20.32
2022-08-22T02:16:25.647Z,20.54
2022-08-22T02:19:15.275Z,20.65
2022-08-22T02:21:47.516Z,20.68
2022-08-22T02:24:28.664Z,20.92
2022-08-22T02:27:31.726Z,20.45
2022-08-22T02:30:07.530Z,20.45
2022-08-22T02:32:45.182Z,20.75
2022-08-22T02:35:27.259Z,20.77
2022-08-22T02:38:12.022Z,20.48
2022-08-22T02:40:48.248Z,20.16
2022-08-22T02:43:23.246Z,20.49
2022-08-22T02:46:03.196Z,20.22
2022-08-22T02:49:04.552Z,20.07
2022-08-22T02:51:45.762Z,20.29
2022-08-22T02:54:21.239Z,19.60
2022-08-22T02:56:50.704Z,20.32
2022-08-22T02:59:34.235Z,19.71
2022-08-22T03:02:33.799Z,19.38
2022-08-22T03:05:17.980Z,18.82
2022-08-22T03:08:03.068Z,19.07
2022-08-22T03:11:09.631Z,18.43
2022-08-22T03:13:59.053Z,18.50
2022-08-22T03:16:39.498Z,18.31
2022-08-22T03:19:18.432Z,19.26
2022-08-22T03:22:13.750Z,19.52
2022-08-22T03:24:55.453Z,19.47
2022-08-22T03:27:33.443Z,19.20
2022-08-22T03:30:30.889Z,19.54
2022-08-22T03:33:16.597Z,19.55
2022-08-22T03:35:46.138Z,19.19
2022-08-22T03:38:28.134Z,18.90
2022-08-22T03:41:12.780Z,19.28
2022-08-22T03:44:18.116Z,19.34
2022-08-22T03:47:06.291Z,18.52
2022-08-22T03:49:32.856Z,18.78
2022-08-22T03:52:18.426Z,19.38
2022-08-22T03:55:22.326Z,19.20
2022-08-22T03:58:27.654Z,19.03
2022-08-22T04:01:39.168Z,18.49
2022-08-22T04:04:27.950Z,18.65
2022-08-22T04:07:33.409Z,18.52
2022-08-22T04:10:28.139Z,18.57
2022-08-22T04:13:21.193Z,18.48
2022-08-22T04:16:25.329Z,18.27
2022-08-22T04:18:57.539Z,18.07
2022-08-22T04:21:38.214Z,18.19
2022-08-22T04:24:04.808Z,18.17
2022-08-22T04:26:42.784Z,17.38
2022-08-22T04:29:17.800Z,17.90
2022-08-22T04:31:57.686Z,17.92
2022-08-22T04:35:20.089Z,18.16
2022-08-22T04:37:55.595Z,18.45
2022-08-22T04:40:48.181Z,18.70
2022-08-22T04:43:34.024Z,18.47
2022-08-22T04:46:36.889Z,18.19
2022-08-22T04:49:40.236Z,18.40
2022-08-22T04:52:09.727Z,18.44
2022-08-22T04:55:02.686Z,18.25
2022-08-22T04:57:41.239Z,18.76
2022-08-22T05:00:10.596Z,18.91
2022-08-22T05:02:48.336Z,18.64
2022-08-22T05:05:24.096Z,18.61
2022-08-22T05:07:59.830Z,18.65
2022-08-22T05:10:35.996Z,19.06
2022-08-22T05:13:08.654Z,19.16
2022-08-22T05:15:44.144Z,18.94
2022-08-22T05:18:24.018Z,18.82
2022-08-22T05:21:01.441Z,18.62
2022-08-22T05:23:41.685Z,18.47
2022-08-22T05:26:12.334Z,18.61
2022-08-22T05:28:52.508Z,18.95
2022-08-22T05:31:41.533Z,19.24
2022-08-22T05:34:15.255Z,19.08
2022-08-22T05:36:54.006Z,19.19
2022-08-22T05:39:25.620Z,18.85
2022-08-22T05:41:58.391Z,18.95
2022-08-22T05:44:31.914Z,19.55
2022-08-22T05:47:04.567Z,19.49
2022-08-22T05:49:49.059Z,19.79
2022-08-22T05:52:27.010Z,19.54
2022-08-22T05:55:18.896Z,19.59
2022-08-22T05:58:13.102Z,19.91
2022-08-22T06:00:45.316Z,19.12
2022-08-22T06:03:30.657Z,19.21
2022-08-22T06:06:09.967Z,19.93
2022-08-22T06:08:43.612Z,20.02
2022-08-22T06:11:26.582Z,19.50
2022-08-22T06:14:29.783Z,20.03
2022-08-22T06:17:10.950Z,19.88
2022-08-22T06:19:45.662Z,20.30
2022-08-22T06:22:26.691Z,19.72
2022-08-22T06:25:00.146Z,20.01
2022-08-22T06:27:31.175Z,20.15
2022-08-22T06:30:03.334Z,20.46
2022-08-22T06:33:00.171Z,20.68
2022-08-22T06:35:35.998Z,20.57
2022-08-22T06:38:03.860Z,20.77
2022-08-22T06:40:30.682Z,20.98
2022-08-22T06:42:59.041Z,21.20
2022-08-22T06:45:30.831Z,20.97
2022-08-22T06:48:16.324Z,21.07
2022-08-22T06:50:47.726Z,21.06
2022-08-22T06:53:47.943Z,20.91
2022-08-22T06:56:26.339Z,21.28
2022-08-22T06:58:58.740Z,21.43
2022-08-22T07:01:33.699Z,21.98
2022-08-22T07:04:08.918Z,23.64
2022-08-22T07:06:40.544Z,24.95
2022-08-22T07:09:22.770Z,26.23
2022-08-22T07:11:53.384Z,27.19
2022-08-22T07:14:29.236Z,28.03
2022-08-22T07:17:00.958Z,27.56
2022-08-22T07:19:32.026Z,28.04
2022-08-22T07:22:09.522Z,28.85
2022-08-22T07:24:36.840Z,29.25
2022-08-22T07:27:17.613Z,29.75
2022-08-22T07:29:47.158Z,29.49
2022-08-22T07:32:18.807Z,30.19
2022-08-22T07:34:51.124Z,30.07
2022-08-22T07:37:25.806Z,30.61
2022-08-22T07:40:11.829Z,30.28
2022-08-22T07:43:15.564Z,30.21
2022-08-22T07:45:57.049Z,30.11
2022-08-22T07:48:59.516Z,30.48
2022-08-22T07:51:53.862Z,30.14
2022-08-22T07:54:39.793Z,30.52
2022-08-22T07:57:13.989Z,30.63
2022-08-22T07:59:48.028Z,30.88
2022-08-22T08:02:18.424Z,30.95
2022-08-22T08:04:50.346Z,31.00
2022-08-22T08:07:21.802Z,30.91
2022-08-22T08:10:01.106Z,30.02
2022-08-22T08:12:37.949Z,30.29
2022-08-22T08:15:10.325Z,29.97
2022-08-22T08:17:40.514Z,29.73
2022-08-22T08:20:12.386Z,28.84
2022-08-22T08:22:46.158Z,29.19
2022-08-22T08:25:17.443Z,29.08
2022-08-22T08:27:45.120Z,29.78
2022-08-22T08:30:21.973Z,29.59
2022-08-22T08:32:59.603Z,28.89
2022-08-22T08:36:06.151Z,28.81
2022-08-22T08:38:55.419Z,28.79
2022-08-22T08:41:59.216Z,29.59
2022-08-22T08:44:47.447Z,29.31
2022-08-22T08:47:31.188Z,29.55
2022-08-22T08:50:23.900Z,29.53
2022-08-22T08:53:25.805Z,29.15
2022-08-22T08:56:19.954Z,29.73
2022-08-22T08:59:03.829Z,29.03
2022-08-22T09:02:02.576Z,29.13
2022-08-22T09:05:06.658Z,29.20
2022-08-22T09:07:42.790Z,28.51
2022-08-22T09:10:29.372Z,28.77
2022-08-22T09:13:26.963Z,29.03
2022-08-22T09:16:04.240Z,28.88
2022-08-22T09:18:50.431Z,28.48
2022-08-22T09:21:44.217Z,28.03
2022-08-22T09:24:10.790Z,27.40
2022-08-22T09:26:52.468Z,26.72
2022-08-22T09:29:54.611Z,26.64
2022-08-22T09:32:55.754Z,26.65
2022-08-22T09:35:46.953Z,26.61
2022-08-22T09:38:27.595Z,25.53
2022-08-22T09:41:07.207Z,25.76
2022-08-22T09:44:02.923Z,25.35
2022-08-22T09:46:40.470Z,25.43
2022-08-22T09:49:26.493Z,25.37
2022-08-22T09:52:15.626Z,25.34
2022-08-22T09:55:35.548Z,25.09
2022-08-22T09:58:38.850Z,25.58
2022-08-22T10:01:11.272Z,25.11
2022-08-22T10:04:22.968Z,25.13
2022-08-22T10:06:58.519Z,25.00
2022-08-22T10:09:42.164Z,25.33
2022-08-22T10:12:24.791Z,25.46
2022-08-22T10:15:27.082Z,25.34
2022-08-22T10:18:36.535Z,25.53
2022-08-22T10:21:36.719Z,25.47
2022-08-22T10:24:25.575Z,25.37
2022-08-22T10:26:57.635Z,25.36
2022-08-22T10:29:43.418Z,24.90
2022-08-22T10:32:39.834Z,24.97
2022-08-22T10:35:18.026Z,24.77
2022-08-22T10:37:56.986Z,25.21
2022-08-22T10:40:29.353Z,25.39
2022-08-22T10:43:13.113Z,25.60
2022-08-22T10:45:47.361Z,25.85
2022-08-22T10:48:29.449Z,25.83
2022-08-22T10:51:12.239Z,25.88
2022-08-22T10:53:44.499Z,25.11
2022-08-22T10:56:52.869Z,24.91
2022-08-22T10:59:29.479Z,25.36
2022-08-22T11:02:31.580Z,25.68
2022-08-22T11:05:24.573Z,25.77
2022-08-22T11:08:00.133Z,26.03
2022-08-22T11:11:04.437Z,26.05
2022-08-22T11:13:58.395Z,25.57
2022-08-22T11:16:42.153Z,25.44
2022-08-22T11:19:15.933Z,25.17
2022-08-22T11:21:51.047Z,25.33
2022-08-22T11:24:55.688Z,25.42
2022-08-22T11:28:08.527Z,25.27
2022-08-22T11:30:58.844Z,25.63
2022-08-22T11:33:46.599Z,26.04
2022-08-22T11:36:33.020Z,26.11
2022-08-22T11:39:18.359Z,25.87
2022-08-22T11:42:12.465Z,25.58
2022-08-22T11:45:02.092Z,25.08
2022-08-22T11:47:49.889Z,25.27
2022-08-22T11:50:35.308Z,25.60
2022-08-22T11:53:54.843Z,25.48
2022-08-22T11:56:32.021Z,25.71
2022-08-22T11:58:58.746Z,26.18
2022-08-22T12:01:28.267Z,25.64
2022-08-22T12:04:29.551Z,25.62
2022-08-22T12:07:24.692Z,26.17
2022-08-22T12:10:02.359Z,25.95
2022-08-22T12:12:54.737Z,25.91
2022-08-22T12:15:30.770Z,26.06
2022-08-22T12:18:25.108Z,26.09
2022-08-22T12:21:03.370Z,26.02
2022-08-22T12:23:48.574Z,26.12
2022-08-22T12:26:16.277Z,26.05
2022-08-22T12:29:03.262Z,26.19
2022-08-22T12:31:47.149Z,26.15
2022-08-22T12:34:16.887Z,26.57
2022-08-22T12:36:52.537Z,26.72
2022-08-22T12:39:26.293Z,26.26
2022-08-22T12:42:31.115Z,26.40
2022-08-22T12:45:45.450Z,26.00
2022-08-22T12:48:32.305Z,25.98
2022-08-22T12:51:29.518Z,26.07
2022-08-22T12:54:23.876Z,26.37
2022-08-22T12:57:23.548Z,26.15
2022-08-22T12:59:58.178Z,26.73
2022-08-22T13:02:35.201Z,26.24
2022-08-22T13:05:09.215Z,26.45
2022-08-22T13:07:39.130Z,26.37
2022-08-22T13:10:14.965Z,26.10
2022-08-22T13:12:50.086Z,26.08
2022-08-22T13:15:45.152Z,26.24
2022-08-22T13:18:29.666Z,26.57
2022-08-22T13:21:04.338Z,26.75
2022-08-22T13:23:58.308Z,26.98
2022-08-22T13:26:33.597Z,27.13
2022-08-22T13:31:59.236Z,26.24
2022-08-22T13:34:53.780Z,26.23
2022-08-22T13:37:31.597Z,25.92
2022-08-22T13:40:04.116Z,25.94
2022-08-22T13:42:40.114Z,26.31
2022-08-22T13:45:23.144Z,26.32
2022-08-22T13:47:59.709Z,26.18
2022-08-22T13:50:37.476Z,26.20
2022-08-22T13:53:34.899Z,26.38
2022-08-22T13:56:15.618Z,26.60
2022-08-22T13:58:55.918Z,26.56
2022-08-22T14:01:37.724Z,27.10
2022-08-22T14:04:32.319Z,27.08
2022-08-22T14:07:02.929Z,27.61
2022-08-22T14:09:35.278Z,27.65
2022-08-22T14:12:17.261Z,28.16
2022-08-22T14:14:55.015Z,27.73
2022-08-22T14:17:33.663Z,27.64
2022-08-22T14:20:32.476Z,27.38
2022-08-22T14:23:11.266Z,27.37
2022-08-22T14:25:41.462Z,26.66
2022-08-22T14:28:27.586Z,27.30
2022-08-22T14:31:02.490Z,27.12
2022-08-22T14:33:43.554Z,26.69
2022-08-22T14:36:24.591Z,27.02
2022-08-22T14:39:10.192Z,26.78
2022-08-22T14:41:56.285Z,26.92
2022-08-22T14:44:33.974Z,27.16
2022-08-22T14:47:32.346Z,27.17
2022-08-22T14:49:58.384Z,27.62
2022-08-22T14:52:34.355Z,27.13
2022-08-22T14:55:24.138Z,27.38
2022-08-22T14:57:54.428Z,26.79
2022-08-22T15:00:36.265Z,26.33
2022-08-22T15:03:20.429Z,26.60
2022-08-22T15:06:11.466Z,26.32
2022-08-22T15:08:50.547Z,26.31
2022-08-22T15:11:17.170Z,26.70
2022-08-22T15:13:55.292Z,26.79
2022-08-22T15:16:36.722Z,26.78
2022-08-22T15:19:24.821Z,26.57
2022-08-22T15:22:03.946Z,26.69
2022-08-22T15:24:31.613Z,27.02
2022-08-22T15:26:59.500Z,27.24
2022-08-22T15:29:34.065Z,26.88
2022-08-22T15:32:05.657Z,26.77
2022-08-22T15:34:42.929Z,26.41
2022-08-22T15:37:18.658Z,26.42
2022-08-22T15:40:11.983Z,26.59
2022-08-22T15:42:51.272Z,26.44
2022-08-22T15:45:36.288Z,26.37
2022-08-22T15:48:24.547Z,26.23
2022-08-22T15:51:02.652Z,26.57
2022-08-22T15:54:00.044Z,26.37
2022-08-22T15:56:35.300Z,26.33
2022-08-22T15:59:54.217Z,26.22
2022-08-22T16:02:39.807Z,26.11
2022-08-22T16:05:09.360Z,26.23
2022-08-22T16:08:04.706Z,26.32
2022-08-22T16:10:39.350Z,26.52
2022-08-22T16:13:27.843Z,26.40
2022-08-22T16:16:17.022Z,26.38
2022-08-22T16:18:43.587Z,26.37
2022-08-22T16:21:16.505Z,26.20
2022-08-22T16:23:46.133Z,26.13
2022-08-22T16:26:19.332Z,26.66
2022-08-22T16:28:59.248Z,26.91
2022-08-22T16:31:32.765Z,26.29
2022-08-22T16:34:18.401Z,26.41
2022-08-22T16:37:03.180Z,26.32
2022-08-22T16:39:36.406Z,26.22
2022-08-22T16:42:15.104Z,26.34
2022-08-22T16:44:47.128Z,26.42
2022-08-22T16:47:13.684Z,26.35
2022-08-22T16:49:49.011Z,25.77
2022-08-22T16:52:21.486Z,26.18
2022-08-22T16:54:51.854Z,25.97
2022-08-22T16:57:59.421Z,26.24
2022-08-22T17:00:51.022Z,25.86
2022-08-22T17:03:29.542Z,25.87
2022-08-22T17:06:29.972Z,25.90
2022-08-22T17:09:44.780Z,26.07
2022-08-22T17:12:41.372Z,26.12
2022-08-22T17:15:28.748Z,26.35
2022-08-22T17:18:13.859Z,25.77
2022-08-22T17:20:46.956Z,25.97
2022-08-22T17:23:41.108Z,25.68
2022-08-22T17:26:20.122Z,25.57
2022-08-22T17:29:09.675Z,25.61
2022-08-22T17:32:00.807Z,26.29
2022-08-22T17:34:36.737Z,25.48
2022-08-22T17:37:19.896Z,25.55
2022-08-22T17:40:01.915Z,25.48
2022-08-22T17:42:40.843Z,25.31
2022-08-22T17:45:27.898Z,25.18
2022-08-22T17:48:24.778Z,25.02
2022-08-22T17:51:12.652Z,25.12
2022-08-22T17:53:47.202Z,25.24
2022-08-22T17:56:22.470Z,25.16
2022-08-22T17:59:00.714Z,24.82
2022-08-22T18:01:44.398Z,24.77
2022-08-22T18:04:27.221Z,24.77
2022-08-22T18:07:19.953Z,24.75
2022-08-22T18:09:56.602Z,24.69
2022-08-22T18:12:48.238Z,25.02
2022-08-22T18:15:45.776Z,24.58
2022-08-22T18:18:28.260Z,24.75
2022-08-22T18:21:05.637Z,24.62
2022-08-22T18:23:44.206Z,24.21
2022-08-22T18:26:35.022Z,24.17
2022-08-22T18:29:26.904Z,24.18
2022-08-22T18:32:07.386Z,23.74
2022-08-22T18:34:45.350Z,23.79
2022-08-22T18:37:30.705Z,23.60
2022-08-22T18:40:50.001Z,23.30
2022-08-22T18:43:18.445Z,23.32
2022-08-22T18:45:47.801Z,23.25
2022-08-22T18:48:54.385Z,23.06
2022-08-22T18:51:31.415Z,22.89
2022-08-22T18:54:07.987Z,22.81
2022-08-22T18:56:49.327Z,22.88
2022-08-22T18:59:15.881Z,22.91
2022-08-22T19:01:45.416Z,22.81
2022-08-22T19:04:30.639Z,22.80
2022-08-22T19:07:32.814Z,22.96
2022-08-22T19:10:17.734Z,22.63
2022-08-22T19:13:17.609Z,22.83
2022-08-22T19:16:35.146Z,22.58
2022-08-22T19:19:17.346Z,22.59
2022-08-22T19:22:14.958Z,22.45
2022-08-22T19:25:16.049Z,22.54
2022-08-22T19:28:04.639Z,22.63
2022-08-22T19:30:33.987Z,22.54
2022-08-22T19:33:08.030Z,22.61
2022-08-22T19:35:45.056Z,22.62
2022-08-22T19:38:12.491Z,22.72
2022-08-22T19:40:44.894Z,22.69
2022-08-22T19:43:35.660Z,22.78
2022-08-22T19:46:08.988Z,22.68
2022-08-22T19:48:46.323Z,22.78
2022-08-22T19:51:31.264Z,22.77
2022-08-22T19:54:14.490Z,22.74
2022-08-22T19:57:10.144Z,22.88
2022-08-22T19:59:56.894Z,22.87
2022-08-22T20:02:36.529Z,22.84
2022-08-22T20:05:19.598Z,22.88
2022-08-22T20:08:17.320Z,22.93
2022-08-22T20:11:12.147Z,23.02
2022-08-22T20:13:39.331Z,22.98
2022-08-22T20:16:14.668Z,22.82
2022-08-22T20:19:05.047Z,22.72
2022-08-22T20:21:40.741Z,22.76
2022-08-22T20:24:12.600Z,22.77
2022-08-22T20:26:57.678Z,22.73
2022-08-22T20:29:34.874Z,22.70
2022-08-22T20:32:05.087Z,22.92
2022-08-22T20:34:37.449Z,22.77
2022-08-22T20:37:27.029Z,22.62
2022-08-22T20:40:32.284Z,22.91
2022-08-22T20:43:10.875Z,22.92
2022-08-22T20:45:59.514Z,23.76
2022-08-22T20:48:35.534Z,22.93
2022-08-22T20:51:08.806Z,22.59
2022-08-22T20:53:36.999Z,22.51
2022-08-22T20:56:04.748Z,22.50
2022-08-22T20:58:39.064Z,22.37
2022-08-22T21:01:10.581Z,22.36
2022-08-22T21:03:37.180Z,22.43
2022-08-22T21:06:20.639Z,22.65
2022-08-22T21:08:49.112Z,22.58
2022-08-22T21:11:22.389Z,22.93
2022-08-22T21:13:50.472Z,22.99
2022-08-22T21:16:33.055Z,22.92
2022-08-22T21:19:00.924Z,23.22
2022-08-22T21:21:34.216Z,23.36
2022-08-22T21:24:04.585Z,23.67
2022-08-22T21:26:36.742Z,23.61
2022-08-22T21:29:07.607Z,23.69
2022-08-22T21:32:07.963Z,23.84
2022-08-22T21:34:41.512Z,23.26
2022-08-22T21:37:14.338Z,23.18
2022-08-22T21:39:46.463Z,23.62
2022-08-22T21:42:25.066Z,23.50
2022-08-22T21:44:59.240Z,23.35
2022-08-22T21:47:31.033Z,23.31
2022-08-22T21:50:15.044Z,23.14
2022-08-22T21:52:58.724Z,22.84
2022-08-22T21:55:25.408Z,22.75
2022-08-22T21:58:31.009Z,22.76
2022-08-22T22:01:28.149Z,22.48
2022-08-22T22:03:57.546Z,22.45
2022-08-22T22:06:25.046Z,22.82
2022-08-22T22:08:51.852Z,22.54
2022-08-22T22:11:18.812Z,22.39
2022-08-22T22:13:45.488Z,22.70
2022-08-22T22:16:12.754Z,22.97
2022-08-22T22:18:40.827Z,22.87
2022-08-22T22:21:08.413Z,22.96
2022-08-22T22:23:35.232Z,23.51
2022-08-22T22:26:04.824Z,23.61
2022-08-22T22:28:36.779Z,23.76
2022-08-22T22:31:05.020Z,23.44
2022-08-22T22:33:39.290Z,23.51
2022-08-22T22:36:09.940Z,22.99
2022-08-22T22:38:39.106Z,23.27
2022-08-22T22:41:06.037Z,22.64
2022-08-22T22:43:33.517Z,22.46
2022-08-22T22:46:00.197Z,22.18
2022-08-22T22:48:27.129Z,21.72
2022-08-22T22:50:54.291Z,21.65
2022-08-22T22:53:33.746Z,21.42
2022-08-22T22:56:09.267Z,21.68
2022-08-22T22:58:37.308Z,21.70
2022-08-22T23:01:15.790Z,21.07
2022-08-22T23:03:43.882Z,21.22
2022-08-22T23:06:16.170Z,21.19
2022-08-22T23:08:43.050Z,21.09
2022-08-22T23:11:16.840Z,21.37
2022-08-22T23:13:43.728Z,21.30
2022-08-22T23:16:14.485Z,21.65
2022-08-22T23:18:41.992Z,21.77
2022-08-22T23:21:24.382Z,22.04
2022-08-22T23:23:53.659Z,22.20
2022-08-22T23:26:20.268Z,22.17
2022-08-22T23:28:46.902Z,22.28
2022-08-22T23:31:27.566Z,22.09
2022-08-22T23:33:56.129Z,21.77
2022-08-22T23:36:23.953Z,22.03
2022-08-22T23:38:51.593Z,21.83
2022-08-22T23:41:19.803Z,22.09
2022-08-22T23:43:49.858Z,22.09
2022-08-22T23:46:19.171Z,22.12
2022-08-22T23:48:46.318Z,21.91
2022-08-22T23:51:23.223Z,21.60
2022-08-22T23:53:51.027Z,21.63
2022-08-22T23:56:21.113Z,22.11
2022-08-22T23:58:50.041Z,21.95
